Time;durP1;ratioP1;P1;durP2;ratioP2;P2;SDS_P1;SDS_P2;PMS_P1;PMS_P2;Temp;Humidity;BMP_temperature;BMP_pressure;BME280_temperature;BME280_humidity;BME280_pressure;Samples;Min_cycle;Max_cycle;Signal;HPM_P1;HPM_P2
2022/03/20 00:01:31;;;;;;;8.93;5.25;;;;;;;3.28;100.00;103802.13;10346093;28;20053;-69
2022/03/20 00:06:31;;;;;;;15.98;6.32;;;;;;;3.23;100.00;103802.53;10313665;28;20045;-69
2022/03/20 00:11:32;;;;;;;13.55;5.22;;;;;;;3.11;100.00;103792.72;10348069;28;20035;-69
2022/03/20 00:16:32;;;;;;;8.75;4.85;;;;;;;3.09;100.00;103790.09;10329035;28;20046;-69
2022/03/20 00:21:33;;;;;;;11.18;5.95;;;;;;;3.06;100.00;103784.94;10331116;28;20093;-69
2022/03/20 00:26:34;;;;;;;12.48;5.47;;;;;;;2.99;100.00;103781.00;10331312;28;20054;-69
2022/03/20 00:31:34;;;;;;;12.65;5.38;;;;;;;2.97;100.00;103778.41;10330134;28;20054;-69
2022/03/20 00:36:36;;;;;;;16.73;6.53;;;;;;;2.91;100.00;103773.50;10312539;28;20295;-69
2022/03/20 00:41:36;;;;;;;10.55;5.30;;;;;;;2.82;100.00;103757.97;10297723;28;20054;-69
2022/03/20 00:46:37;;;;;;;12.93;5.80;;;;;;;2.83;100.00;103776.03;10297859;28;20081;-69
2022/03/20 00:51:37;;;;;;;11.63;5.18;;;;;;;2.74;100.00;103757.78;10272953;28;20050;-69
2022/03/20 00:56:38;;;;;;;10.70;5.95;;;;;;;2.68;100.00;103752.88;10290172;28;20046;-69
2022/03/20 01:01:39;;;;;;;11.88;6.03;;;;;;;2.66;100.00;103749.41;10289571;28;20106;-69
2022/03/20 01:06:39;;;;;;;11.00;6.25;;;;;;;2.49;100.00;103724.50;10273209;28;20091;-69
2022/03/20 01:11:40;;;;;;;9.60;6.13;;;;;;;2.50;100.00;103734.41;10281136;28;20062;-69
2022/03/20 01:16:40;;;;;;;16.33;5.65;;;;;;;2.36;100.00;103724.69;10320021;28;20058;-69
2022/03/20 01:21:41;;;;;;;11.35;5.90;;;;;;;2.25;100.00;103710.28;10338087;28;20053;-68
2022/03/20 01:26:41;;;;;;;11.95;5.97;;;;;;;2.26;100.00;103717.47;10305302;28;20084;-69
2022/03/20 01:31:42;;;;;;;19.85;6.38;;;;;;;2.22;100.00;103705.97;10288663;28;20097;-69
2022/03/20 01:36:43;;;;;;;12.75;6.25;;;;;;;2.21;100.00;103709.66;10320392;28;20081;-68
2022/03/20 01:41:46;;;;;;;17.27;6.82;;;;;;;2.03;100.00;103671.34;10336543;28;20046;-69
2022/03/20 01:46:46;;;;;;;11.82;7.20;;;;;;;2.12;100.00;103673.25;10291901;28;20129;-69
2022/03/20 01:57:07;;;;;;;12.95;6.50;;;;;;;2.11;100.00;103655.25;10285311;28;20069;-68
2022/03/20 02:02:07;;;;;;;14.27;6.88;;;;;;;2.06;100.00;103652.03;10347660;28;20035;-70
2022/03/20 02:07:08;;;;;;;20.85;6.97;;;;;;;2.04;100.00;103654.03;10287321;28;20051;-69
2022/03/20 02:12:10;;;;;;;14.30;7.55;;;;;;;1.97;100.00;103631.09;10285235;28;20050;-69
2022/03/20 02:17:10;;;;;;;13.15;7.47;;;;;;;1.93;100.00;103630.47;10303683;28;20109;-69
2022/03/20 02:22:11;;;;;;;16.70;8.30;;;;;;;1.96;100.00;103642.94;10316679;28;20324;-69
2022/03/20 02:27:15;;;;;;;15.82;8.75;;;;;;;1.89;100.00;103623.56;10316385;28;20046;-70
2022/03/20 02:32:19;;;;;;;13.70;7.88;;;;;;;1.89;100.00;103606.41;10319438;28;20049;-70
2022/03/20 02:37:21;;;;;;;15.07;7.38;;;;;;;1.89;100.00;103620.00;10317635;28;20204;-70
2022/03/20 02:42:22;;;;;;;14.73;7.47;;;;;;;1.76;100.00;103593.88;10316405;28;20038;-69
2022/03/20 02:47:24;;;;;;;20.95;8.40;;;;;;;1.71;100.00;103577.09;10334790;28;20038;-69
2022/03/20 02:52:46;;;;;;;16.70;8.40;;;;;;;1.70;100.00;103574.53;10314577;28;20085;-69
2022/03/20 02:57:47;;;;;;;14.95;8.70;;;;;;;1.68;100.00;103571.94;10336025;28;20382;-69
2022/03/20 03:02:49;;;;;;;17.73;9.32;;;;;;;1.63;100.00;103563.28;10317108;28;20106;-70
2022/03/20 03:13:10;;;;;;;19.42;9.05;;;;;;;1.56;100.00;103556.66;10336931;28;20043;-69
2022/03/20 03:18:10;;;;;;;18.92;9.65;;;;;;;1.48;100.00;103543.72;10299867;28;20042;-69
2022/03/20 03:23:11;;;;;;;15.77;9.95;;;;;;;1.45;100.00;103544.00;10332027;28;20348;-69
2022/03/20 03:28:12;;;;;;;17.45;9.27;;;;;;;1.40;100.00;103540.78;10293276;28;20098;-69
2022/03/20 03:33:13;;;;;;;18.83;9.15;;;;;;;1.38;100.00;103537.34;10312832;28;20136;-69
2022/03/20 03:38:15;;;;;;;18.05;9.88;;;;;;;1.36;100.00;103520.31;10258489;28;20051;-69
2022/03/20 03:43:17;;;;;;;20.70;10.70;;;;;;;1.31;100.00;103509.00;10276727;28;20045;-68
2022/03/20 03:48:18;;;;;;;21.15;10.60;;;;;;;1.27;100.00;103497.53;10291940;28;20069;-69
2022/03/20 03:53:18;;;;;;;18.02;9.35;;;;;;;1.30;100.00;103505.44;10275767;28;20062;-69
2022/03/20 03:58:18;;;;;;;20.77;10.27;;;;;;;1.16;100.00;103486.72;10292049;28;20043;-69
2022/03/20 04:03:19;;;;;;;18.65;10.20;;;;;;;1.17;100.00;103492.00;10293064;28;20042;-68
2022/03/20 04:08:20;;;;;;;19.23;10.48;;;;;;;1.08;100.00;103473.78;10348111;28;20564;-69
2022/03/20 04:13:20;;;;;;;20.77;10.43;;;;;;;1.00;100.00;103463.56;10299926;28;20042;-71
2022/03/20 04:18:21;;;;;;;19.85;10.13;;;;;;;1.07;100.00;103482.91;10330822;28;20046;-69
2022/03/20 04:28:40;;;;;;;21.92;12.25;;;;;;;0.96;100.00;103483.78;10275133;28;20053;-71
2022/03/20 04:33:45;;;;;;;22.52;10.88;;;;;;;0.86;100.00;103465.69;10259029;28;20380;-72
2022/03/20 04:38:45;;;;;;;24.40;13.38;;;;;;;0.84;100.00;103471.25;10260319;28;20031;-72
2022/03/20 04:43:47;;;;;;;24.80;12.40;;;;;;;0.79;100.00;103463.50;10243507;28;20367;-69
2022/03/20 04:59:34;;;;;;;23.58;12.48;;;;;;;0.71;100.00;103448.84;10339718;28;20046;-71
2022/03/20 05:04:34;;;;;;;21.40;12.45;;;;;;;0.70;100.00;103447.09;10339600;28;20041;-71
2022/03/20 05:14:58;;;;;;;21.55;13.00;;;;;;;0.49;100.00;103393.66;10340102;28;20074;-72
2022/03/20 05:19:58;;;;;;;23.92;12.80;;;;;;;0.57;100.00;103410.16;10319751;28;20054;-72
2022/03/20 05:24:58;;;;;;;22.08;12.63;;;;;;;0.61;100.00;103402.63;10321166;28;20047;-70
2022/03/20 05:29:59;;;;;;;26.38;14.27;;;;;;;0.62;100.00;103409.81;10304173;28;20038;-70
2022/03/20 05:34:59;;;;;;;23.13;13.43;;;;;;;0.62;100.00;103398.97;10321420;28;20061;-71
2022/03/20 05:40:00;;;;;;;23.77;12.43;;;;;;;0.52;100.00;103389.84;10320387;28;20054;-71
2022/03/20 05:45:02;;;;;;;28.08;13.15;;;;;;;0.58;100.00;103408.34;10304362;28;20057;-71
2022/03/20 05:50:03;;;;;;;27.15;14.50;;;;;;;0.50;100.00;103389.97;10334850;28;20057;-71
2022/03/20 05:55:04;;;;;;;25.00;13.98;;;;;;;0.51;100.00;103391.69;10303570;28;20109;-71
2022/03/20 06:00:05;;;;;;;27.42;14.98;;;;;;;0.61;100.00;103397.22;10320750;28;20041;-71
2022/03/20 06:05:08;;;;;;;25.10;14.55;;;;;;;0.53;100.00;103372.59;10336355;28;20042;-71
2022/03/20 06:10:10;;;;;;;25.30;15.00;;;;;;;0.66;100.00;103383.28;10303573;28;20050;-71
2022/03/20 06:15:11;;;;;;;24.17;13.95;;;;;;;0.37;100.00;103351.31;10293970;28;20043;-71
2022/03/20 06:20:12;;;;;;;26.10;15.32;;;;;;;0.66;100.00;103357.00;10310599;28;20051;-71
2022/03/20 06:25:15;;;;;;;26.02;15.43;;;;;;;1.00;100.00;103387.59;10301790;28;20038;-71
2022/03/20 06:30:16;;;;;;;28.13;14.20;;;;;;;1.13;100.00;103364.88;10303079;28;20483;-71
2022/03/20 06:35:18;;;;;;;26.55;14.20;;;;;;;1.30;100.00;103371.56;10302314;28;20358;-72
2022/03/20 06:40:18;;;;;;;21.60;13.13;;;;;;;1.42;100.00;103355.06;10318081;28;20073;-71
2022/03/20 06:45:20;;;;;;;28.02;12.95;;;;;;;1.46;100.00;103330.38;10317867;28;20038;-71
2022/03/20 06:50:21;;;;;;;20.60;13.07;;;;;;;1.70;100.00;103351.81;10317874;28;20386;-71
2022/03/20 06:55:22;;;;;;;26.70;13.95;;;;;;;1.80;100.00;103347.31;10317762;28;20046;-71
2022/03/20 07:00:23;;;;;;;27.92;13.23;;;;;;;1.89;100.00;103341.03;10317155;28;20039;-71
2022/03/20 07:05:24;;;;;;;26.90;13.32;;;;;;;1.98;100.00;103332.06;10317390;28;20074;-71
2022/03/20 07:10:25;;;;;;;21.60;13.00;;;;;;;2.10;100.00;103327.41;10330271;28;20094;-71
2022/03/20 07:15:25;;;;;;;23.10;13.15;;;;;;;2.21;100.00;103319.16;10332847;28;20042;-70
2022/03/20 07:20:26;;;;;;;28.45;13.85;;;;;;;2.21;100.00;103305.56;10316606;28;20444;-71
2022/03/20 07:30:50;;;;;;;24.42;13.55;;;;;;;2.53;100.00;103298.16;10316064;28;20042;-71
2022/03/20 07:35:51;;;;;;;20.23;13.05;;;;;;;2.82;100.00;103298.19;10299770;28;20057;-72
2022/03/20 07:40:52;;;;;;;24.85;14.05;;;;;;;2.91;100.00;103247.47;10281304;28;20066;-71
2022/03/20 07:45:52;;;;;;;24.88;13.45;;;;;;;3.19;100.00;103253.88;10291388;28;20046;-71
2022/03/20 07:50:53;;;;;;;23.92;12.75;;;;;;;3.47;100.00;103256.66;10260210;28;20058;-71
2022/03/20 07:55:53;;;;;;;22.98;13.25;;;;;;;3.53;100.00;103250.59;10291936;28;20046;-71
2022/03/20 08:00:54;;;;;;;23.40;13.55;;;;;;;3.50;100.00;103248.19;10285335;28;20049;-70
2022/03/20 08:05:54;;;;;;;26.05;14.23;;;;;;;3.61;100.00;103237.09;10347391;28;20047;-69
2022/03/20 08:10:55;;;;;;;19.95;13.13;;;;;;;3.71;100.00;103220.72;10329610;28;20142;-70
2022/03/20 08:15:56;;;;;;;23.65;12.68;;;;;;;3.70;100.00;103219.88;10330427;28;20101;-70
2022/03/20 08:20:56;;;;;;;23.00;13.18;;;;;;;3.79;100.00;103208.03;10329757;28;20039;-70
2022/03/20 08:25:57;;;;;;;27.50;14.75;;;;;;;4.04;100.00;103214.63;10347705;28;20070;-69
2022/03/20 08:30:57;;;;;;;25.15;13.27;;;;;;;4.25;100.00;103211.59;10312612;28;20058;-69
2022/03/20 08:35:58;;;;;;;20.27;13.57;;;;;;;4.30;100.00;103169.38;10291077;28;20046;-70
2022/03/20 08:40:59;;;;;;;27.02;14.13;;;;;;;4.62;100.00;103182.47;10329684;28;20038;-70
2022/03/20 08:45:59;;;;;;;23.20;14.57;;;;;;;4.78;100.00;103171.66;10313527;28;20061;-70
2022/03/20 08:51:00;;;;;;;24.05;14.05;;;;;;;4.96;100.00;103141.59;10297600;28;20066;-69
2022/03/20 08:56:00;;;;;;;26.77;14.70;;;;;;;5.04;100.00;103119.81;10312786;28;20054;-69
2022/03/20 09:01:01;;;;;;;25.25;14.00;;;;;;;5.35;100.00;103135.63;10296266;28;20045;-69
2022/03/20 09:06:01;;;;;;;28.00;16.02;;;;;;;5.47;100.00;103117.94;10328391;28;20054;-70
2022/03/20 09:11:02;;;;;;;26.48;16.08;;;;;;;5.74;99.52;103126.91;10327763;28;20049;-70
2022/03/20 09:21:23;;;;;;;28.88;16.50;;;;;;;6.08;93.09;103071.28;10331217;28;20042;-70
2022/03/20 09:26:23;;;;;;;24.88;14.98;;;;;;;6.14;93.30;103056.94;10328348;28;20106;-70
2022/03/20 09:31:26;;;;;;;26.40;15.15;;;;;;;6.37;89.78;103053.50;10312934;28;20095;-70
2022/03/20 09:36:28;;;;;;;28.98;16.23;;;;;;;6.53;89.65;103050.75;10319324;28;20037;-71
2022/03/20 09:41:30;;;;;;;28.17;17.00;;;;;;;6.70;88.10;103047.94;10285392;28;20587;-71
2022/03/20 09:46:31;;;;;;;22.92;15.23;;;;;;;6.94;85.92;103039.63;10299255;28;20046;-71
2022/03/20 09:51:32;;;;;;;26.98;16.10;;;;;;;7.30;86.30;103057.47;10287218;28;20122;-71
2022/03/20 09:56:33;;;;;;;25.90;15.55;;;;;;;7.38;83.78;103027.28;10302216;28;20026;-71
2022/03/20 10:01:34;;;;;;;29.23;15.60;;;;;;;7.64;81.30;103013.25;10302747;28;20043;-70
2022/03/20 10:06:36;;;;;;;30.25;16.48;;;;;;;7.87;81.80;103019.59;10302814;28;20081;-70
2022/03/20 10:11:46;;;;;;;27.33;16.58;;;;;;;8.21;80.52;103022.91;10318252;28;20037;-72
2022/03/20 10:16:48;;;;;;;28.90;16.83;;;;;;;8.26;76.60;102995.72;10353202;28;20035;-71
2022/03/20 10:21:54;;;;;;;27.33;15.50;;;;;;;8.17;75.63;102986.75;10335633;28;20518;-69
2022/03/20 10:27:01;;;;;;;26.00;17.08;;;;;;;8.47;76.66;102989.53;10318531;28;20620;-71
2022/03/20 10:32:11;;;;;;;27.50;16.60;;;;;;;8.69;75.41;102958.38;10333842;28;20069;-71
2022/03/20 10:37:11;;;;;;;30.95;17.02;;;;;;;8.40;72.86;102898.00;10318132;28;20049;-70
2022/03/20 10:42:13;;;;;;;30.38;17.23;;;;;;;8.92;73.77;102957.41;10350607;28;20041;-70
2022/03/20 10:47:16;;;;;;;28.92;16.48;;;;;;;9.08;73.11;102957.19;10334920;28;20065;-69
2022/03/20 10:52:20;;;;;;;27.17;15.93;;;;;;;9.34;71.11;102931.03;10318463;28;20046;-69
2022/03/20 10:57:21;;;;;;;31.58;19.25;;;;;;;9.67;69.75;102912.13;10317515;28;20044;-70
2022/03/20 11:02:23;;;;;;;29.75;15.82;;;;;;;9.71;68.76;102890.56;10329729;28;20022;-70
2022/03/20 11:07:23;;;;;;;29.48;16.08;;;;;;;9.98;67.37;102894.34;10350535;28;20249;-71
2022/03/20 11:12:27;;;;;;;25.80;16.30;;;;;;;10.19;66.12;102874.19;10349192;28;20046;-71
2022/03/20 11:17:47;;;;;;;26.77;17.60;;;;;;;10.29;64.91;102855.44;10333743;28;20060;-69
2022/03/20 11:22:51;;;;;;;25.52;16.15;;;;;;;10.53;64.25;102857.84;10253380;29;20043;-69
2022/03/20 11:28:01;;;;;;;29.52;16.27;;;;;;;10.57;62.76;102828.84;10284834;28;20043;-71
2022/03/20 11:33:02;;;;;;;26.25;16.42;;;;;;;10.84;65.09;102840.78;10269252;28;20059;-71
2022/03/20 11:38:19;;;;;;;25.77;17.50;;;;;;;10.79;62.72;102810.25;10244215;29;20043;-71
2022/03/20 11:43:20;;;;;;;30.75;17.25;;;;;;;10.78;62.10;102781.00;10254456;29;20097;-70
2022/03/20 11:48:20;;;;;;;27.45;17.15;;;;;;;11.23;61.68;102767.50;10232174;28;20039;-72
2022/03/20 11:53:28;;;;;;;29.85;18.35;;;;;;;11.48;61.50;102757.47;10283319;28;20075;-69
2022/03/20 11:58:36;;;;;;;26.08;17.55;;;;;;;11.74;59.34;102765.91;10267633;29;20110;-69
2022/03/20 12:04:04;;;;;;;26.17;16.48;;;;;;;11.88;59.87;102781.38;10249303;29;20038;-71
2022/03/20 12:09:26;;;;;;;22.77;15.40;;;;;;;12.17;56.89;102769.00;10267611;29;20047;-71
2022/03/20 12:14:39;;;;;;;26.48;17.10;;;;;;;12.79;56.29;102771.22;10266779;29;20459;-71
2022/03/20 12:19:41;;;;;;;24.55;16.63;;;;;;;13.18;55.07;102755.41;10266761;29;20043;-71
2022/03/20 12:24:51;;;;;;;24.13;16.25;;;;;;;14.03;52.63;102750.06;10268897;28;20071;-71
2022/03/20 12:30:21;;;;;;;29.58;18.08;;;;;;;14.60;51.45;102760.03;10272422;28;20043;-71
2022/03/20 12:35:26;;;;;;;23.38;16.33;;;;;;;14.41;49.35;102756.44;10284493;28;20058;-72
2022/03/20 12:40:33;;;;;;;29.77;17.25;;;;;;;14.45;49.16;102719.69;10284492;28;20035;-72
2022/03/20 12:45:35;;;;;;;26.85;17.08;;;;;;;14.10;50.34;102738.94;10284079;28;20043;-71
2022/03/20 12:50:39;;;;;;;26.58;15.98;;;;;;;14.89;51.14;102708.38;10288970;28;20125;-72
2022/03/20 12:55:40;;;;;;;29.02;16.13;;;;;;;14.97;48.33;102701.66;10273720;28;20042;-72
2022/03/20 13:00:41;;;;;;;22.85;16.63;;;;;;;14.75;48.42;102695.81;10306766;28;20078;-72
2022/03/20 13:05:57;;;;;;;23.83;16.23;;;;;;;13.63;48.67;102709.00;10305004;28;20058;-71
2022/03/20 13:11:48;;;;;;;26.15;15.50;;;;;;;13.37;49.06;102693.53;10278640;28;20062;-70
2022/03/20 13:16:33;;;;;;;23.95;16.10;;;;;;;13.95;50.47;102702.47;10274938;28;20094;-71
2022/03/20 13:21:34;;;;;;;23.13;16.25;;;;;;;14.87;50.27;102680.88;10313762;28;20053;-73
2022/03/20 13:26:34;;;;;;;24.20;15.70;;;;;;;15.89;47.23;102674.06;10334393;28;20058;-72
2022/03/20 13:31:35;;;;;;;23.38;16.35;;;;;;;16.02;46.00;102649.84;10320655;28;20053;-72
2022/03/20 13:36:36;;;;;;;24.63;16.77;;;;;;;16.06;44.20;102634.38;10336650;28;20034;-72
2022/03/20 13:41:41;;;;;;;23.55;15.68;;;;;;;15.53;44.59;102641.91;10304417;28;20482;-71
2022/03/20 13:46:43;;;;;;;24.33;17.52;;;;;;;15.33;44.56;102625.63;10354591;28;20047;-70
2022/03/20 13:51:48;;;;;;;23.17;16.42;;;;;;;15.67;45.90;102642.47;10347416;28;20085;-73
2022/03/20 13:57:11;;;;;;;26.73;16.45;;;;;;;15.34;44.42;102585.72;10336160;28;20378;-71
2022/03/20 14:02:12;;;;;;;23.23;15.55;;;;;;;14.54;45.62;102620.41;10353504;28;20534;-73
2022/03/20 14:07:19;;;;;;;23.30;15.45;;;;;;;14.60;47.26;102644.44;10319932;28;20034;-72
2022/03/20 14:12:29;;;;;;;24.85;16.63;;;;;;;15.32;46.37;102640.63;10336154;28;20066;-73
2022/03/20 14:17:44;;;;;;;24.02;16.95;;;;;;;14.80;45.47;102626.63;10317389;28;20039;-73
2022/03/20 14:23:10;;;;;;;27.33;15.88;;;;;;;13.27;48.94;102647.03;10350441;28;20069;-72
2022/03/20 14:28:11;;;;;;;24.55;15.52;;;;;;;12.79;49.89;102660.66;10322609;28;20047;-71
2022/03/20 14:44:17;;;;;;;26.30;15.40;;;;;;;14.02;47.12;102626.53;10351861;28;20102;-70
2022/03/20 14:49:20;;;;;;;22.80;15.10;;;;;;;13.16;48.58;102611.81;10347497;28;20058;-71
2022/03/20 14:54:20;;;;;;;30.00;16.23;;;;;;;12.75;50.90;102634.56;10333157;28;20038;-71
2022/03/20 14:59:21;;;;;;;24.80;16.25;;;;;;;12.91;50.50;102620.16;10331061;28;20053;-72
2022/03/20 15:04:21;;;;;;;22.63;15.07;;;;;;;13.17;50.27;102629.25;10349858;28;20046;-72
2022/03/20 15:14:41;;;;;;;27.88;15.07;;;;;;;13.32;49.31;102588.28;10349657;28;20056;-69
2022/03/20 15:19:41;;;;;;;30.08;16.42;;;;;;;13.05;50.75;102616.19;10300256;28;20058;-69
2022/03/20 15:24:42;;;;;;;22.42;14.70;;;;;;;12.91;51.05;102609.09;10331209;28;20474;-69
2022/03/20 15:29:42;;;;;;;21.33;14.60;;;;;;;13.00;52.07;102607.75;10349006;28;20374;-70
2022/03/20 15:34:43;;;;;;;25.05;15.57;;;;;;;12.75;51.45;102605.00;10331620;28;20046;-71
2022/03/20 15:39:44;;;;;;;22.05;14.88;;;;;;;12.37;51.75;102594.06;10348750;28;20121;-71
2022/03/20 15:44:44;;;;;;;22.23;15.63;;;;;;;12.31;52.92;102607.69;10314470;28;20557;-73
2022/03/20 15:49:45;;;;;;;22.45;14.18;;;;;;;12.06;54.27;102617.84;10312488;28;20050;-72
2022/03/20 15:54:45;;;;;;;23.80;15.45;;;;;;;11.79;52.98;102604.16;10314457;28;20050;-70
2022/03/20 15:59:46;;;;;;;21.10;14.20;;;;;;;11.55;54.08;102593.88;10347601;28;20046;-71
2022/03/20 16:04:48;;;;;;;26.30;14.32;;;;;;;11.64;54.71;102609.97;10329699;28;20118;-71
2022/03/20 16:09:48;;;;;;;27.27;15.18;;;;;;;11.56;54.42;102598.34;10329447;28;20074;-71
2022/03/20 16:14:48;;;;;;;20.80;13.25;;;;;;;11.45;54.11;102589.69;10346611;28;20066;-71
2022/03/20 16:19:49;;;;;;;20.95;14.32;;;;;;;11.33;54.76;102596.94;10312588;28;20050;-71
2022/03/20 16:30:09;;;;;;;30.30;15.13;;;;;;;11.08;55.42;102600.41;10329582;28;20041;-71
2022/03/20 16:35:10;;;;;;;24.52;13.95;;;;;;;10.98;55.80;102597.25;10347790;28;20062;-71
2022/03/20 16:40:10;;;;;;;22.77;14.05;;;;;;;10.99;55.92;102615.47;10347258;28;20034;-71
2022/03/20 16:45:13;;;;;;;20.70;13.27;;;;;;;10.94;55.47;102617.19;10288086;28;20035;-71
2022/03/20 16:50:14;;;;;;;19.77;13.15;;;;;;;10.86;56.32;102601.72;10312643;28;20041;-71
2022/03/20 16:55:15;;;;;;;22.60;14.32;;;;;;;10.75;56.25;102594.09;10346082;28;20042;-71
2022/03/20 17:00:16;;;;;;;19.65;13.23;;;;;;;10.70;56.31;102608.50;10328967;28;20109;-71
2022/03/20 17:05:16;;;;;;;20.13;12.98;;;;;;;10.63;57.07;102604.91;10312019;28;20039;-70
2022/03/20 17:10:17;;;;;;;20.70;12.40;;;;;;;10.23;58.37;102550.66;10327674;28;20038;-71
2022/03/20 17:15:17;;;;;;;21.92;12.57;;;;;;;10.48;57.16;102589.47;10345211;28;20182;-71
2022/03/20 17:20:18;;;;;;;20.67;13.02;;;;;;;10.47;57.39;102603.44;10342710;28;20398;-71
2022/03/20 17:25:18;;;;;;;18.85;12.15;;;;;;;10.45;58.29;102609.13;10291660;28;20462;-71
2022/03/20 17:30:19;;;;;;;21.45;12.90;;;;;;;10.38;59.62;102622.06;10306615;28;20487;-71
2022/03/20 17:35:19;;;;;;;20.13;13.23;;;;;;;10.28;61.10;102636.19;10288413;28;20138;-71
2022/03/20 17:40:20;;;;;;;21.23;13.18;;;;;;;10.24;59.77;102676.22;10288218;28;20672;-71
2022/03/20 17:45:20;;;;;;;33.58;20.55;;;;;;;10.14;68.16;102749.22;10287853;28;20039;-71
2022/03/20 17:50:21;;;;;;;40.65;24.52;;;;;;;9.56;80.90;102771.56;10305592;28;20058;-71
2022/03/20 17:55:21;;;;;;;40.10;25.35;;;;;;;9.03;90.76;102785.72;10294897;28;20094;-71
2022/03/20 18:00:22;;;;;;;44.70;25.42;;;;;;;8.71;98.22;102778.88;10279405;28;20047;-71
2022/03/20 18:10:41;;;;;;;48.38;27.42;;;;;;;8.57;100.00;102786.09;10336110;28;20046;-73
2022/03/20 18:15:44;;;;;;;42.85;26.50;;;;;;;8.46;100.00;102792.94;10332489;28;20078;-72
2022/03/20 18:20:45;;;;;;;41.97;27.15;;;;;;;8.47;100.00;102808.38;10333567;28;20077;-72
2022/03/20 18:25:45;;;;;;;45.08;25.92;;;;;;;8.31;100.00;102811.28;10334385;28;20046;-72
2022/03/20 18:30:46;;;;;;;46.95;27.77;;;;;;;8.32;100.00;102829.47;10350351;28;20046;-73
2022/03/20 18:35:47;;;;;;;40.35;25.80;;;;;;;8.22;100.00;102825.13;10333531;28;20049;-72
2022/03/20 18:40:47;;;;;;;47.33;28.50;;;;;;;8.21;100.00;102839.91;10315728;28;20498;-72
2022/03/20 18:45:48;;;;;;;40.70;25.92;;;;;;;8.21;100.00;102845.38;10348229;28;20251;-71
2022/03/20 18:50:48;;;;;;;44.22;28.67;;;;;;;8.22;100.00;102860.78;10317660;28;20061;-72
2022/03/20 18:55:50;;;;;;;41.72;26.92;;;;;;;8.15;100.00;102856.28;10302685;28;20046;-72
2022/03/20 19:00:51;;;;;;;44.60;28.00;;;;;;;8.16;100.00;102871.69;10317242;28;20461;-72
2022/03/20 19:05:52;;;;;;;45.45;27.05;;;;;;;8.10;100.00;102876.03;10331842;28;20043;-72
2022/03/20 19:10:52;;;;;;;50.45;26.95;;;;;;;8.07;100.00;102884.66;10332721;28;20034;-72
2022/03/20 19:15:53;;;;;;;45.78;28.45;;;;;;;8.01;100.00;102899.97;10332421;28;20046;-72
2022/03/20 19:20:53;;;;;;;46.63;28.70;;;;;;;7.96;100.00;102901.56;10331081;28;20043;-72
2022/03/20 19:25:55;;;;;;;44.58;28.90;;;;;;;7.86;100.00;102910.91;10348675;28;20053;-71
2022/03/20 19:30:56;;;;;;;47.58;29.40;;;;;;;7.73;100.00;102918.94;10330596;28;20042;-72
2022/03/20 19:41:15;;;;;;;51.40;31.13;;;;;;;7.08;100.00;102931.22;10293024;28;20459;-72
2022/03/20 19:46:16;;;;;;;50.25;30.67;;;;;;;6.40;100.00;102884.34;10307214;28;20062;-72
2022/03/20 19:51:16;;;;;;;50.33;29.30;;;;;;;6.40;100.00;102943.69;10291372;28;20047;-71
2022/03/20 19:56:17;;;;;;;51.17;30.65;;;;;;;6.07;100.00;102944.63;10290598;28;20307;-72
2022/03/20 20:01:18;;;;;;;51.75;31.33;;;;;;;5.81;100.00;102927.56;10291094;28;20046;-72
2022/03/20 20:06:18;;;;;;;50.47;31.02;;;;;;;5.70;100.00;102942.41;10274164;28;20042;-71
2022/03/20 20:11:20;;;;;;;53.53;32.80;;;;;;;5.61;100.00;102948.91;10289967;28;20039;-72
2022/03/20 20:16:21;;;;;;;55.70;33.78;;;;;;;5.47;100.00;102937.63;10321937;28;20053;-72
2022/03/20 20:21:22;;;;;;;49.45;30.27;;;;;;;5.30;100.00;102916.78;10329399;28;20054;-71
2022/03/20 20:26:22;;;;;;;55.47;34.00;;;;;;;5.36;100.00;102946.16;10330304;28;20094;-72
2022/03/20 20:31:23;;;;;;;56.33;32.92;;;;;;;5.33;100.00;102945.63;10328628;28;20038;-71
2022/03/20 20:36:23;;;;;;;54.70;34.03;;;;;;;5.34;100.00;102956.41;10313138;28;20039;-72
2022/03/20 20:41:24;;;;;;;58.58;35.50;;;;;;;5.33;100.00;102951.94;10296126;28;20117;-72
2022/03/20 20:46:25;;;;;;;53.63;32.85;;;;;;;5.26;100.00;102940.84;10346955;28;20042;-71
2022/03/20 20:51:26;;;;;;;58.33;32.70;;;;;;;5.31;100.00;102953.97;10330461;28;20097;-72
2022/03/20 20:56:26;;;;;;;59.45;34.15;;;;;;;5.35;100.00;102958.09;10329817;28;20080;-72
2022/03/20 21:01:28;;;;;;;59.85;34.38;;;;;;;5.36;100.00;102951.63;10313412;28;20046;-72
2022/03/20 21:06:31;;;;;;;60.60;35.67;;;;;;;5.46;100.00;102956.94;10313634;28;20042;-71
2022/03/20 21:11:32;;;;;;;58.60;35.03;;;;;;;5.47;100.00;102961.34;10328965;28;20038;-72
2022/03/20 21:16:32;;;;;;;56.88;34.33;;;;;;;5.50;100.00;102973.81;10329868;28;20053;-72
2022/03/20 21:21:33;;;;;;;57.63;33.90;;;;;;;5.56;100.00;102984.94;10345610;28;20078;-72
2022/03/20 21:26:34;;;;;;;55.78;33.35;;;;;;;5.62;100.00;102973.34;10327469;28;20098;-71
2022/03/20 21:31:35;;;;;;;53.75;33.38;;;;;;;5.75;100.00;102991.09;10319495;28;20030;-72
2022/03/20 21:36:36;;;;;;;57.95;33.85;;;;;;;5.88;100.00;102993.31;10352283;28;20345;-72
2022/03/20 21:41:36;;;;;;;56.42;32.40;;;;;;;5.84;100.00;102982.72;10334745;28;20030;-72
2022/03/20 21:46:38;;;;;;;57.60;33.58;;;;;;;5.95;100.00;102978.81;10333331;28;20046;-71
2022/03/20 21:51:39;;;;;;;57.05;33.17;;;;;;;5.87;100.00;102962.41;10313701;28;20043;-71
2022/03/20 21:56:39;;;;;;;57.05;33.33;;;;;;;5.95;100.00;102976.06;10312892;28;20050;-72
2022/03/20 22:01:39;;;;;;;53.58;33.10;;;;;;;6.10;100.00;102981.72;10312719;28;20389;-72
2022/03/20 22:06:41;;;;;;;57.80;33.42;;;;;;;6.15;100.00;102984.78;10312679;28;20043;-72
2022/03/20 22:11:41;;;;;;;57.08;32.40;;;;;;;6.07;100.00;102966.50;10312085;28;20632;-71
2022/03/20 22:16:42;;;;;;;56.05;33.00;;;;;;;6.21;100.00;102989.56;10311795;28;20047;-72
2022/03/20 22:21:43;;;;;;;52.35;33.03;;;;;;;6.25;100.00;102979.97;10295125;28;20073;-71
2022/03/20 22:26:43;;;;;;;62.22;35.10;;;;;;;6.33;100.00;102991.94;10278642;28;20055;-72
2022/03/20 22:31:44;;;;;;;52.70;32.03;;;;;;;6.30;100.00;102986.81;10262267;28;20043;-72
2022/03/20 22:42:03;;;;;;;57.03;34.63;;;;;;;6.33;100.00;102981.00;10309526;28;20045;-72
2022/03/20 22:47:04;;;;;;;58.00;33.97;;;;;;;6.33;100.00;102991.94;10294823;28;20368;-71
2022/03/20 22:52:05;;;;;;;49.97;29.75;;;;;;;6.22;100.00;102991.28;10311068;28;20105;-72
2022/03/20 22:57:05;;;;;;;58.40;31.98;;;;;;;6.13;100.00;102996.94;10323000;28;20581;-72
2022/03/20 23:02:06;;;;;;;50.00;31.08;;;;;;;6.14;100.00;103009.56;10348810;28;20038;-72
2022/03/20 23:07:06;;;;;;;54.30;30.73;;;;;;;6.02;100.00;103007.19;10350567;28;20432;-72
2022/03/20 23:12:07;;;;;;;46.95;26.90;;;;;;;6.08;100.00;103033.00;10312902;28;20057;-71
2022/03/20 23:17:08;;;;;;;47.80;26.98;;;;;;;5.86;100.00;103018.09;10327225;28;20039;-71
2022/03/20 23:22:09;;;;;;;49.97;28.50;;;;;;;5.99;100.00;103045.78;10347544;28;20097;-70
2022/03/20 23:27:12;;;;;;;47.92;26.48;;;;;;;5.91;100.00;103042.19;10331410;28;20050;-70
2022/03/20 23:32:16;;;;;;;52.72;28.13;;;;;;;5.82;100.00;103016.72;10315828;28;20062;-70
2022/03/20 23:37:17;;;;;;;55.33;29.52;;;;;;;5.96;100.00;103050.78;10332621;28;20138;-70
2022/03/20 23:47:36;;;;;;;50.28;28.27;;;;;;;5.91;100.00;103055.84;10348832;28;20116;-70
2022/03/20 23:52:40;;;;;;;57.85;32.70;;;;;;;5.89;100.00;103030.56;10330837;28;20042;-70
